sensor_id;sensor_type;location;lat;lon;timestamp;P1;durP1;ratioP1;P2;durP2;ratioP2
25615;SDS011;13482;48.234;13.006;2022-10-10T00:01:19;1.90;;;0.70;;
25615;SDS011;13482;48.234;13.006;2022-10-10T00:06:19;1.20;;;0.60;;
25615;SDS011;13482;48.234;13.006;2022-10-10T00:08:47;1.98;;;0.77;;
25615;SDS011;13482;48.234;13.006;2022-10-10T00:11:15;0.90;;;0.57;;
25615;SDS011;13482;48.234;13.006;2022-10-10T00:13:45;1.40;;;0.70;;
25615;SDS011;13482;48.234;13.006;2022-10-10T00:16:13;1.63;;;0.80;;
25615;SDS011;13482;48.234;13.006;2022-10-10T00:18:41;1.73;;;0.77;;
25615;SDS011;13482;48.234;13.006;2022-10-10T00:21:09;1.00;;;0.65;;
25615;SDS011;13482;48.234;13.006;2022-10-10T00:23:36;1.50;;;0.70;;
25615;SDS011;13482;48.234;13.006;2022-10-10T00:26:04;1.27;;;0.70;;
25615;SDS011;13482;48.234;13.006;2022-10-10T00:28:34;1.27;;;0.80;;
25615;SDS011;13482;48.234;13.006;2022-10-10T00:31:06;1.02;;;0.60;;
25615;SDS011;13482;48.234;13.006;2022-10-10T00:33:35;1.05;;;0.63;;
25615;SDS011;13482;48.234;13.006;2022-10-10T00:36:03;2.40;;;0.80;;
25615;SDS011;13482;48.234;13.006;2022-10-10T00:38:31;2.92;;;1.02;;
25615;SDS011;13482;48.234;13.006;2022-10-10T00:40:59;2.15;;;0.70;;
25615;SDS011;13482;48.234;13.006;2022-10-10T00:43:28;2.13;;;0.90;;
25615;SDS011;13482;48.234;13.006;2022-10-10T00:45:55;1.33;;;0.75;;
25615;SDS011;13482;48.234;13.006;2022-10-10T00:53:38;2.40;;;0.70;;
25615;SDS011;13482;48.234;13.006;2022-10-10T00:56:10;2.15;;;0.70;;
25615;SDS011;13482;48.234;13.006;2022-10-10T00:58:40;1.30;;;0.60;;
25615;SDS011;13482;48.234;13.006;2022-10-10T01:01:11;1.67;;;0.70;;
25615;SDS011;13482;48.234;13.006;2022-10-10T01:03:38;1.55;;;0.65;;
25615;SDS011;13482;48.234;13.006;2022-10-10T01:06:05;1.75;;;0.88;;
25615;SDS011;13482;48.234;13.006;2022-10-10T01:08:33;1.50;;;0.70;;
25615;SDS011;13482;48.234;13.006;2022-10-10T01:16:57;1.92;;;0.90;;
25615;SDS011;13482;48.234;13.006;2022-10-10T01:20:05;2.15;;;1.05;;
25615;SDS011;13482;48.234;13.006;2022-10-10T01:31:24;1.67;;;0.75;;
25615;SDS011;13482;48.234;13.006;2022-10-10T01:34:03;2.15;;;0.80;;
25615;SDS011;13482;48.234;13.006;2022-10-10T01:37:08;1.55;;;0.60;;
25615;SDS011;13482;48.234;13.006;2022-10-10T01:42:36;1.60;;;0.70;;
25615;SDS011;13482;48.234;13.006;2022-10-10T01:45:13;2.17;;;0.70;;
25615;SDS011;13482;48.234;13.006;2022-10-10T01:47:41;1.60;;;0.60;;
25615;SDS011;13482;48.234;13.006;2022-10-10T01:50:09;2.15;;;0.63;;
25615;SDS011;13482;48.234;13.006;2022-10-10T01:55:32;2.35;;;0.90;;
25615;SDS011;13482;48.234;13.006;2022-10-10T01:58:50;1.85;;;0.70;;
25615;SDS011;13482;48.234;13.006;2022-10-10T02:02:36;2.38;;;0.70;;
25615;SDS011;13482;48.234;13.006;2022-10-10T02:08:14;2.55;;;0.73;;
25615;SDS011;13482;48.234;13.006;2022-10-10T02:11:08;1.17;;;0.60;;
25615;SDS011;13482;48.234;13.006;2022-10-10T02:13:49;2.65;;;0.68;;
25615;SDS011;13482;48.234;13.006;2022-10-10T02:16:36;1.98;;;0.80;;
25615;SDS011;13482;48.234;13.006;2022-10-10T02:19:07;1.77;;;0.68;;
25615;SDS011;13482;48.234;13.006;2022-10-10T02:21:40;1.77;;;0.93;;
25615;SDS011;13482;48.234;13.006;2022-10-10T02:24:08;3.72;;;1.40;;
25615;SDS011;13482;48.234;13.006;2022-10-10T02:26:38;3.13;;;1.55;;
25615;SDS011;13482;48.234;13.006;2022-10-10T02:29:13;3.63;;;1.50;;
25615;SDS011;13482;48.234;13.006;2022-10-10T02:31:47;2.85;;;1.52;;
25615;SDS011;13482;48.234;13.006;2022-10-10T02:34:49;4.28;;;1.77;;
25615;SDS011;13482;48.234;13.006;2022-10-10T02:37:21;3.30;;;1.33;;
25615;SDS011;13482;48.234;13.006;2022-10-10T02:39:51;3.22;;;1.70;;
25615;SDS011;13482;48.234;13.006;2022-10-10T02:42:23;3.00;;;1.60;;
25615;SDS011;13482;48.234;13.006;2022-10-10T02:44:53;2.55;;;1.40;;
25615;SDS011;13482;48.234;13.006;2022-10-10T02:47:21;2.13;;;1.25;;
25615;SDS011;13482;48.234;13.006;2022-10-10T02:49:49;2.65;;;1.33;;
25615;SDS011;13482;48.234;13.006;2022-10-10T02:52:16;2.72;;;1.30;;
25615;SDS011;13482;48.234;13.006;2022-10-10T02:54:44;2.65;;;1.20;;
25615;SDS011;13482;48.234;13.006;2022-10-10T02:57:11;1.48;;;1.10;;
25615;SDS011;13482;48.234;13.006;2022-10-10T02:59:38;2.50;;;1.15;;
25615;SDS011;13482;48.234;13.006;2022-10-10T03:02:06;2.30;;;1.05;;
25615;SDS011;13482;48.234;13.006;2022-10-10T03:04:34;2.20;;;0.90;;
25615;SDS011;13482;48.234;13.006;2022-10-10T03:07:02;1.88;;;1.00;;
25615;SDS011;13482;48.234;13.006;2022-10-10T03:09:30;1.55;;;0.80;;
25615;SDS011;13482;48.234;13.006;2022-10-10T03:11:57;2.22;;;1.00;;
25615;SDS011;13482;48.234;13.006;2022-10-10T03:14:24;1.90;;;1.08;;
25615;SDS011;13482;48.234;13.006;2022-10-10T03:16:51;2.25;;;1.17;;
25615;SDS011;13482;48.234;13.006;2022-10-10T03:19:18;2.50;;;1.23;;
25615;SDS011;13482;48.234;13.006;2022-10-10T03:21:45;2.60;;;1.00;;
25615;SDS011;13482;48.234;13.006;2022-10-10T03:24:13;2.97;;;0.82;;
25615;SDS011;13482;48.234;13.006;2022-10-10T03:26:40;2.72;;;0.90;;
25615;SDS011;13482;48.234;13.006;2022-10-10T03:29:07;1.38;;;0.90;;
25615;SDS011;13482;48.234;13.006;2022-10-10T03:31:35;1.90;;;1.10;;
25615;SDS011;13482;48.234;13.006;2022-10-10T03:34:02;2.30;;;1.25;;
25615;SDS011;13482;48.234;13.006;2022-10-10T03:36:29;3.40;;;1.00;;
25615;SDS011;13482;48.234;13.006;2022-10-10T03:38:56;1.70;;;0.93;;
25615;SDS011;13482;48.234;13.006;2022-10-10T03:41:24;1.98;;;1.10;;
25615;SDS011;13482;48.234;13.006;2022-10-10T03:43:51;2.00;;;1.17;;
25615;SDS011;13482;48.234;13.006;2022-10-10T03:46:18;2.88;;;0.90;;
25615;SDS011;13482;48.234;13.006;2022-10-10T03:48:46;2.13;;;1.17;;
25615;SDS011;13482;48.234;13.006;2022-10-10T03:51:15;3.10;;;1.10;;
25615;SDS011;13482;48.234;13.006;2022-10-10T03:53:42;2.92;;;0.98;;
25615;SDS011;13482;48.234;13.006;2022-10-10T03:56:09;1.73;;;0.93;;
25615;SDS011;13482;48.234;13.006;2022-10-10T03:58:37;2.58;;;1.13;;
25615;SDS011;13482;48.234;13.006;2022-10-10T04:01:04;1.85;;;0.90;;
25615;SDS011;13482;48.234;13.006;2022-10-10T04:03:32;1.67;;;0.85;;
25615;SDS011;13482;48.234;13.006;2022-10-10T04:06:00;1.40;;;0.80;;
25615;SDS011;13482;48.234;13.006;2022-10-10T04:08:27;1.67;;;0.80;;
25615;SDS011;13482;48.234;13.006;2022-10-10T04:10:55;1.50;;;0.90;;
25615;SDS011;13482;48.234;13.006;2022-10-10T04:13:23;2.28;;;0.80;;
25615;SDS011;13482;48.234;13.006;2022-10-10T04:15:53;2.10;;;0.90;;
25615;SDS011;13482;48.234;13.006;2022-10-10T04:18:22;1.95;;;1.00;;
25615;SDS011;13482;48.234;13.006;2022-10-10T04:20:50;3.42;;;1.13;;
25615;SDS011;13482;48.234;13.006;2022-10-10T04:23:17;2.05;;;1.00;;
25615;SDS011;13482;48.234;13.006;2022-10-10T04:25:45;1.60;;;1.00;;
25615;SDS011;13482;48.234;13.006;2022-10-10T04:30:44;1.63;;;0.90;;
25615;SDS011;13482;48.234;13.006;2022-10-10T04:33:12;1.42;;;0.88;;
25615;SDS011;13482;48.234;13.006;2022-10-10T04:35:39;1.15;;;0.90;;
25615;SDS011;13482;48.234;13.006;2022-10-10T04:38:06;2.15;;;1.10;;
25615;SDS011;13482;48.234;13.006;2022-10-10T04:40:34;1.20;;;0.90;;
25615;SDS011;13482;48.234;13.006;2022-10-10T04:43:03;2.92;;;1.77;;
25615;SDS011;13482;48.234;13.006;2022-10-10T04:45:30;3.28;;;2.00;;
25615;SDS011;13482;48.234;13.006;2022-10-10T04:48:02;2.95;;;1.60;;
25615;SDS011;13482;48.234;13.006;2022-10-10T04:50:30;2.75;;;1.65;;
25615;SDS011;13482;48.234;13.006;2022-10-10T04:52:57;2.28;;;1.50;;
25615;SDS011;13482;48.234;13.006;2022-10-10T04:55:24;3.75;;;2.28;;
25615;SDS011;13482;48.234;13.006;2022-10-10T04:57:51;3.85;;;2.50;;
25615;SDS011;13482;48.234;13.006;2022-10-10T05:00:19;4.25;;;2.10;;
25615;SDS011;13482;48.234;13.006;2022-10-10T05:02:47;3.97;;;2.35;;
25615;SDS011;13482;48.234;13.006;2022-10-10T05:05:15;2.45;;;1.73;;
25615;SDS011;13482;48.234;13.006;2022-10-10T05:07:43;2.42;;;1.55;;
25615;SDS011;13482;48.234;13.006;2022-10-10T05:10:10;3.15;;;1.60;;
25615;SDS011;13482;48.234;13.006;2022-10-10T05:12:37;2.97;;;1.42;;
25615;SDS011;13482;48.234;13.006;2022-10-10T05:15:04;4.93;;;1.65;;
25615;SDS011;13482;48.234;13.006;2022-10-10T05:17:32;3.03;;;1.58;;
25615;SDS011;13482;48.234;13.006;2022-10-10T05:19:59;2.03;;;1.25;;
25615;SDS011;13482;48.234;13.006;2022-10-10T05:22:26;3.00;;;1.70;;
25615;SDS011;13482;48.234;13.006;2022-10-10T05:24:53;3.45;;;1.60;;
25615;SDS011;13482;48.234;13.006;2022-10-10T05:27:20;4.53;;;2.67;;
25615;SDS011;13482;48.234;13.006;2022-10-10T05:29:48;6.63;;;4.13;;
25615;SDS011;13482;48.234;13.006;2022-10-10T05:32:15;9.98;;;6.10;;
25615;SDS011;13482;48.234;13.006;2022-10-10T05:34:42;9.82;;;6.32;;
25615;SDS011;13482;48.234;13.006;2022-10-10T05:37:09;12.73;;;7.55;;
25615;SDS011;13482;48.234;13.006;2022-10-10T05:39:37;13.05;;;7.40;;
25615;SDS011;13482;48.234;13.006;2022-10-10T05:42:04;11.38;;;7.00;;
25615;SDS011;13482;48.234;13.006;2022-10-10T05:44:31;12.45;;;6.82;;
25615;SDS011;13482;48.234;13.006;2022-10-10T05:46:59;8.50;;;5.18;;
25615;SDS011;13482;48.234;13.006;2022-10-10T05:49:26;5.95;;;4.00;;
25615;SDS011;13482;48.234;13.006;2022-10-10T05:51:53;4.78;;;3.05;;
25615;SDS011;13482;48.234;13.006;2022-10-10T05:54:20;6.65;;;3.13;;
25615;SDS011;13482;48.234;13.006;2022-10-10T05:56:47;4.18;;;2.50;;
25615;SDS011;13482;48.234;13.006;2022-10-10T05:59:14;3.90;;;2.35;;
25615;SDS011;13482;48.234;13.006;2022-10-10T06:01:42;3.30;;;2.08;;
25615;SDS011;13482;48.234;13.006;2022-10-10T06:04:09;3.20;;;1.90;;
25615;SDS011;13482;48.234;13.006;2022-10-10T06:06:36;3.67;;;2.28;;
25615;SDS011;13482;48.234;13.006;2022-10-10T06:09:03;8.00;;;4.47;;
25615;SDS011;13482;48.234;13.006;2022-10-10T06:11:30;7.55;;;4.55;;
25615;SDS011;13482;48.234;13.006;2022-10-10T06:13:57;5.97;;;3.95;;
25615;SDS011;13482;48.234;13.006;2022-10-10T06:16:25;7.03;;;3.50;;
25615;SDS011;13482;48.234;13.006;2022-10-10T06:18:53;5.30;;;3.03;;
25615;SDS011;13482;48.234;13.006;2022-10-10T06:21:22;3.95;;;2.10;;
25615;SDS011;13482;48.234;13.006;2022-10-10T06:23:50;2.60;;;1.42;;
25615;SDS011;13482;48.234;13.006;2022-10-10T06:26:18;2.47;;;1.55;;
25615;SDS011;13482;48.234;13.006;2022-10-10T06:28:45;4.20;;;1.55;;
25615;SDS011;13482;48.234;13.006;2022-10-10T06:31:13;3.13;;;1.27;;
25615;SDS011;13482;48.234;13.006;2022-10-10T06:33:43;2.47;;;1.35;;
25615;SDS011;13482;48.234;13.006;2022-10-10T06:36:14;1.70;;;1.13;;
25615;SDS011;13482;48.234;13.006;2022-10-10T06:38:43;1.90;;;1.10;;
25615;SDS011;13482;48.234;13.006;2022-10-10T06:41:11;2.13;;;1.15;;
25615;SDS011;13482;48.234;13.006;2022-10-10T06:43:39;2.15;;;1.15;;
25615;SDS011;13482;48.234;13.006;2022-10-10T06:46:06;3.83;;;1.50;;
25615;SDS011;13482;48.234;13.006;2022-10-10T06:48:35;3.03;;;1.30;;
25615;SDS011;13482;48.234;13.006;2022-10-10T06:51:04;4.18;;;1.45;;
25615;SDS011;13482;48.234;13.006;2022-10-10T06:53:34;2.20;;;1.47;;
25615;SDS011;13482;48.234;13.006;2022-10-10T06:56:02;2.83;;;1.65;;
25615;SDS011;13482;48.234;13.006;2022-10-10T06:58:30;2.28;;;1.60;;
25615;SDS011;13482;48.234;13.006;2022-10-10T07:00:59;2.70;;;1.30;;
25615;SDS011;13482;48.234;13.006;2022-10-10T07:03:28;3.97;;;1.40;;
25615;SDS011;13482;48.234;13.006;2022-10-10T07:05:57;2.42;;;1.58;;
25615;SDS011;13482;48.234;13.006;2022-10-10T07:08:26;3.03;;;1.40;;
25615;SDS011;13482;48.234;13.006;2022-10-10T07:10:54;3.17;;;1.63;;
25615;SDS011;13482;48.234;13.006;2022-10-10T07:13:22;3.20;;;1.60;;
25615;SDS011;13482;48.234;13.006;2022-10-10T07:15:49;3.05;;;1.55;;
25615;SDS011;13482;48.234;13.006;2022-10-10T07:18:17;2.65;;;1.50;;
25615;SDS011;13482;48.234;13.006;2022-10-10T07:20:45;2.65;;;1.63;;
25615;SDS011;13482;48.234;13.006;2022-10-10T07:23:12;2.05;;;1.60;;
25615;SDS011;13482;48.234;13.006;2022-10-10T07:25:40;2.75;;;1.42;;
25615;SDS011;13482;48.234;13.006;2022-10-10T07:28:09;2.20;;;1.48;;
25615;SDS011;13482;48.234;13.006;2022-10-10T07:30:40;2.58;;;1.50;;
25615;SDS011;13482;48.234;13.006;2022-10-10T07:33:12;2.40;;;1.52;;
25615;SDS011;13482;48.234;13.006;2022-10-10T07:38:09;1.95;;;1.30;;
25615;SDS011;13482;48.234;13.006;2022-10-10T07:40:38;2.78;;;1.70;;
25615;SDS011;13482;48.234;13.006;2022-10-10T07:43:06;2.05;;;1.38;;
25615;SDS011;13482;48.234;13.006;2022-10-10T07:45:34;2.95;;;1.58;;
25615;SDS011;13482;48.234;13.006;2022-10-10T07:48:02;2.42;;;1.40;;
25615;SDS011;13482;48.234;13.006;2022-10-10T07:50:30;2.10;;;1.25;;
25615;SDS011;13482;48.234;13.006;2022-10-10T07:52:57;1.77;;;1.38;;
25615;SDS011;13482;48.234;13.006;2022-10-10T07:55:24;2.40;;;1.45;;
25615;SDS011;13482;48.234;13.006;2022-10-10T07:57:51;2.42;;;1.20;;
25615;SDS011;13482;48.234;13.006;2022-10-10T08:00:18;3.17;;;1.30;;
25615;SDS011;13482;48.234;13.006;2022-10-10T08:02:46;2.20;;;1.35;;
25615;SDS011;13482;48.234;13.006;2022-10-10T08:05:13;2.55;;;1.67;;
25615;SDS011;13482;48.234;13.006;2022-10-10T08:07:40;2.35;;;1.40;;
25615;SDS011;13482;48.234;13.006;2022-10-10T08:10:07;2.75;;;1.30;;
25615;SDS011;13482;48.234;13.006;2022-10-10T08:12:35;2.60;;;1.40;;
25615;SDS011;13482;48.234;13.006;2022-10-10T08:15:03;2.95;;;1.50;;
25615;SDS011;13482;48.234;13.006;2022-10-10T08:17:32;2.50;;;1.42;;
25615;SDS011;13482;48.234;13.006;2022-10-10T08:19:59;2.60;;;1.60;;
25615;SDS011;13482;48.234;13.006;2022-10-10T08:22:26;2.55;;;1.50;;
25615;SDS011;13482;48.234;13.006;2022-10-10T08:24:53;2.60;;;1.55;;
25615;SDS011;13482;48.234;13.006;2022-10-10T08:27:21;3.08;;;1.40;;
25615;SDS011;13482;48.234;13.006;2022-10-10T08:29:48;2.67;;;1.50;;
25615;SDS011;13482;48.234;13.006;2022-10-10T08:32:15;2.03;;;1.30;;
25615;SDS011;13482;48.234;13.006;2022-10-10T08:34:42;2.80;;;1.45;;
25615;SDS011;13482;48.234;13.006;2022-10-10T08:37:10;2.30;;;1.50;;
25615;SDS011;13482;48.234;13.006;2022-10-10T08:39:37;2.95;;;1.50;;
25615;SDS011;13482;48.234;13.006;2022-10-10T08:42:04;2.78;;;1.60;;
25615;SDS011;13482;48.234;13.006;2022-10-10T08:47:18;2.95;;;1.83;;
25615;SDS011;13482;48.234;13.006;2022-10-10T08:50:04;3.10;;;1.58;;
25615;SDS011;13482;48.234;13.006;2022-10-10T08:53:01;3.08;;;1.80;;
25615;SDS011;13482;48.234;13.006;2022-10-10T08:55:53;2.55;;;1.50;;
25615;SDS011;13482;48.234;13.006;2022-10-10T08:58:22;3.47;;;2.10;;
25615;SDS011;13482;48.234;13.006;2022-10-10T09:03:38;2.35;;;1.40;;
25615;SDS011;13482;48.234;13.006;2022-10-10T09:09:04;2.45;;;1.50;;
25615;SDS011;13482;48.234;13.006;2022-10-10T09:12:09;2.90;;;1.52;;
25615;SDS011;13482;48.234;13.006;2022-10-10T09:25:50;3.75;;;1.90;;
25615;SDS011;13482;48.234;13.006;2022-10-10T09:31:09;1.90;;;1.20;;
25615;SDS011;13482;48.234;13.006;2022-10-10T09:33:52;2.30;;;1.40;;
25615;SDS011;13482;48.234;13.006;2022-10-10T09:36:23;2.47;;;1.60;;
25615;SDS011;13482;48.234;13.006;2022-10-10T09:39:01;2.38;;;1.50;;
25615;SDS011;13482;48.234;13.006;2022-10-10T09:42:03;2.65;;;1.38;;
25615;SDS011;13482;48.234;13.006;2022-10-10T09:44:38;2.53;;;1.40;;
25615;SDS011;13482;48.234;13.006;2022-10-10T09:47:10;3.97;;;1.60;;
25615;SDS011;13482;48.234;13.006;2022-10-10T09:49:40;2.80;;;1.50;;
25615;SDS011;13482;48.234;13.006;2022-10-10T09:52:17;3.60;;;1.90;;
25615;SDS011;13482;48.234;13.006;2022-10-10T09:54:56;2.55;;;1.65;;
25615;SDS011;13482;48.234;13.006;2022-10-10T09:57:30;2.20;;;1.60;;
25615;SDS011;13482;48.234;13.006;2022-10-10T10:02:48;3.15;;;1.58;;
25615;SDS011;13482;48.234;13.006;2022-10-10T10:05:22;2.30;;;1.70;;
25615;SDS011;13482;48.234;13.006;2022-10-10T10:07:52;5.00;;;1.55;;
25615;SDS011;13482;48.234;13.006;2022-10-10T10:10:22;2.33;;;1.58;;
25615;SDS011;13482;48.234;13.006;2022-10-10T10:12:55;2.75;;;1.55;;
25615;SDS011;13482;48.234;13.006;2022-10-10T10:15:23;2.75;;;1.58;;
25615;SDS011;13482;48.234;13.006;2022-10-10T10:18:11;2.80;;;1.67;;
25615;SDS011;13482;48.234;13.006;2022-10-10T10:21:08;4.65;;;1.90;;
25615;SDS011;13482;48.234;13.006;2022-10-10T10:32:00;2.67;;;1.30;;
25615;SDS011;13482;48.234;13.006;2022-10-10T10:47:14;1.90;;;1.25;;
25615;SDS011;13482;48.234;13.006;2022-10-10T10:58:03;2.85;;;1.20;;
25615;SDS011;13482;48.234;13.006;2022-10-10T11:01:35;1.73;;;1.25;;
25615;SDS011;13482;48.234;13.006;2022-10-10T11:04:46;1.70;;;1.20;;
25615;SDS011;13482;48.234;13.006;2022-10-10T11:08:07;1.80;;;1.08;;
25615;SDS011;13482;48.234;13.006;2022-10-10T11:10:44;2.47;;;1.38;;
25615;SDS011;13482;48.234;13.006;2022-10-10T11:21:43;3.00;;;1.30;;
25615;SDS011;13482;48.234;13.006;2022-10-10T11:30:35;1.75;;;0.93;;
25615;SDS011;13482;48.234;13.006;2022-10-10T11:33:13;2.40;;;1.10;;
25615;SDS011;13482;48.234;13.006;2022-10-10T11:35:47;2.95;;;1.25;;
25615;SDS011;13482;48.234;13.006;2022-10-10T11:38:34;1.77;;;1.10;;
25615;SDS011;13482;48.234;13.006;2022-10-10T11:41:15;2.85;;;1.10;;
25615;SDS011;13482;48.234;13.006;2022-10-10T11:44:07;2.28;;;0.93;;
25615;SDS011;13482;48.234;13.006;2022-10-10T11:50:16;1.50;;;1.00;;
25615;SDS011;13482;48.234;13.006;2022-10-10T11:53:07;2.53;;;1.13;;
25615;SDS011;13482;48.234;13.006;2022-10-10T11:58:40;1.63;;;0.93;;
25615;SDS011;13482;48.234;13.006;2022-10-10T12:01:34;1.77;;;1.10;;
25615;SDS011;13482;48.234;13.006;2022-10-10T12:04:06;1.95;;;1.00;;
25615;SDS011;13482;48.234;13.006;2022-10-10T12:06:35;2.40;;;1.20;;
25615;SDS011;13482;48.234;13.006;2022-10-10T12:15:04;2.40;;;0.88;;
25615;SDS011;13482;48.234;13.006;2022-10-10T12:17:40;1.70;;;1.05;;
25615;SDS011;13482;48.234;13.006;2022-10-10T12:23:09;1.30;;;0.85;;
25615;SDS011;13482;48.234;13.006;2022-10-10T12:25:54;1.98;;;1.10;;
25615;SDS011;13482;48.234;13.006;2022-10-10T12:28:23;2.35;;;1.02;;
25615;SDS011;13482;48.234;13.006;2022-10-10T12:36:07;1.67;;;0.98;;
25615;SDS011;13482;48.234;13.006;2022-10-10T12:39:29;1.88;;;1.08;;
25615;SDS011;13482;48.234;13.006;2022-10-10T12:46:40;3.67;;;0.90;;
25615;SDS011;13482;48.234;13.006;2022-10-10T12:49:22;1.92;;;0.90;;
25615;SDS011;13482;48.234;13.006;2022-10-10T12:52:01;1.70;;;0.93;;
25615;SDS011;13482;48.234;13.006;2022-10-10T12:54:39;1.95;;;0.90;;
25615;SDS011;13482;48.234;13.006;2022-10-10T12:59:37;1.98;;;0.90;;
25615;SDS011;13482;48.234;13.006;2022-10-10T13:02:05;2.25;;;0.98;;
25615;SDS011;13482;48.234;13.006;2022-10-10T13:04:45;1.17;;;0.80;;
25615;SDS011;13482;48.234;13.006;2022-10-10T13:07:15;2.80;;;1.05;;
25615;SDS011;13482;48.234;13.006;2022-10-10T13:12:23;2.95;;;0.90;;
25615;SDS011;13482;48.234;13.006;2022-10-10T13:14:56;1.70;;;0.90;;
25615;SDS011;13482;48.234;13.006;2022-10-10T13:17:31;3.38;;;1.10;;
25615;SDS011;13482;48.234;13.006;2022-10-10T13:20:04;2.75;;;1.05;;
25615;SDS011;13482;48.234;13.006;2022-10-10T13:22:32;5.78;;;1.10;;
25615;SDS011;13482;48.234;13.006;2022-10-10T13:25:02;1.65;;;1.00;;
25615;SDS011;13482;48.234;13.006;2022-10-10T13:27:35;2.00;;;1.10;;
25615;SDS011;13482;48.234;13.006;2022-10-10T13:30:02;2.92;;;1.00;;
25615;SDS011;13482;48.234;13.006;2022-10-10T13:32:32;2.55;;;1.00;;
25615;SDS011;13482;48.234;13.006;2022-10-10T13:35:03;1.63;;;1.00;;
25615;SDS011;13482;48.234;13.006;2022-10-10T13:37:33;4.32;;;1.20;;
25615;SDS011;13482;48.234;13.006;2022-10-10T13:40:01;1.92;;;0.90;;
25615;SDS011;13482;48.234;13.006;2022-10-10T13:50:33;3.60;;;0.80;;
25615;SDS011;13482;48.234;13.006;2022-10-10T13:58:25;6.90;;;1.20;;
25615;SDS011;13482;48.234;13.006;2022-10-10T14:00:57;2.17;;;0.90;;
25615;SDS011;13482;48.234;13.006;2022-10-10T14:03:27;2.78;;;1.00;;
25615;SDS011;13482;48.234;13.006;2022-10-10T14:05:57;1.40;;;0.80;;
25615;SDS011;13482;48.234;13.006;2022-10-10T14:08:25;1.80;;;0.95;;
25615;SDS011;13482;48.234;13.006;2022-10-10T14:11:04;2.45;;;0.82;;
25615;SDS011;13482;48.234;13.006;2022-10-10T14:13:33;1.27;;;0.70;;
25615;SDS011;13482;48.234;13.006;2022-10-10T14:18:43;1.88;;;0.82;;
25615;SDS011;13482;48.234;13.006;2022-10-10T14:21:11;3.13;;;1.10;;
25615;SDS011;13482;48.234;13.006;2022-10-10T14:23:39;2.47;;;0.95;;
25615;SDS011;13482;48.234;13.006;2022-10-10T14:26:08;2.17;;;0.90;;
25615;SDS011;13482;48.234;13.006;2022-10-10T14:28:41;2.03;;;0.85;;
25615;SDS011;13482;48.234;13.006;2022-10-10T14:31:09;2.25;;;0.90;;
25615;SDS011;13482;48.234;13.006;2022-10-10T14:33:38;2.42;;;1.00;;
25615;SDS011;13482;48.234;13.006;2022-10-10T14:36:05;1.70;;;0.90;;
25615;SDS011;13482;48.234;13.006;2022-10-10T14:38:33;3.15;;;1.00;;
25615;SDS011;13482;48.234;13.006;2022-10-10T14:41:00;1.80;;;0.90;;
25615;SDS011;13482;48.234;13.006;2022-10-10T14:43:28;1.67;;;0.88;;
25615;SDS011;13482;48.234;13.006;2022-10-10T14:45:55;2.88;;;1.05;;
25615;SDS011;13482;48.234;13.006;2022-10-10T14:48:22;2.83;;;0.90;;
25615;SDS011;13482;48.234;13.006;2022-10-10T14:50:49;1.88;;;0.80;;
25615;SDS011;13482;48.234;13.006;2022-10-10T14:53:17;2.28;;;0.93;;
25615;SDS011;13482;48.234;13.006;2022-10-10T14:55:44;3.03;;;0.95;;
25615;SDS011;13482;48.234;13.006;2022-10-10T14:58:16;2.47;;;0.77;;
25615;SDS011;13482;48.234;13.006;2022-10-10T15:00:51;1.88;;;1.00;;
25615;SDS011;13482;48.234;13.006;2022-10-10T15:03:19;2.15;;;0.90;;
25615;SDS011;13482;48.234;13.006;2022-10-10T15:05:47;2.90;;;0.80;;
25615;SDS011;13482;48.234;13.006;2022-10-10T15:08:16;2.20;;;0.90;;
25615;SDS011;13482;48.234;13.006;2022-10-10T15:10:44;2.97;;;1.10;;
25615;SDS011;13482;48.234;13.006;2022-10-10T15:13:12;1.52;;;0.88;;
25615;SDS011;13482;48.234;13.006;2022-10-10T15:15:40;2.63;;;0.90;;
25615;SDS011;13482;48.234;13.006;2022-10-10T15:18:07;2.10;;;1.00;;
25615;SDS011;13482;48.234;13.006;2022-10-10T15:20:54;1.60;;;0.93;;
25615;SDS011;13482;48.234;13.006;2022-10-10T15:23:21;1.52;;;1.10;;
25615;SDS011;13482;48.234;13.006;2022-10-10T15:25:49;2.63;;;1.10;;
25615;SDS011;13482;48.234;13.006;2022-10-10T15:28:16;2.60;;;1.15;;
25615;SDS011;13482;48.234;13.006;2022-10-10T15:30:44;2.10;;;1.00;;
25615;SDS011;13482;48.234;13.006;2022-10-10T15:33:11;2.45;;;1.10;;
25615;SDS011;13482;48.234;13.006;2022-10-10T15:35:38;2.03;;;1.05;;
25615;SDS011;13482;48.234;13.006;2022-10-10T15:38:26;1.77;;;0.80;;
25615;SDS011;13482;48.234;13.006;2022-10-10T15:40:57;2.15;;;1.10;;
25615;SDS011;13482;48.234;13.006;2022-10-10T15:43:44;2.17;;;0.93;;
25615;SDS011;13482;48.234;13.006;2022-10-10T15:46:23;2.15;;;1.00;;
25615;SDS011;13482;48.234;13.006;2022-10-10T15:49:01;1.98;;;1.10;;
25615;SDS011;13482;48.234;13.006;2022-10-10T15:51:29;2.25;;;1.13;;
25615;SDS011;13482;48.234;13.006;2022-10-10T15:53:56;2.53;;;1.00;;
25615;SDS011;13482;48.234;13.006;2022-10-10T15:56:24;3.08;;;2.00;;
25615;SDS011;13482;48.234;13.006;2022-10-10T15:58:56;4.93;;;2.40;;
25615;SDS011;13482;48.234;13.006;2022-10-10T16:01:25;2.65;;;1.60;;
25615;SDS011;13482;48.234;13.006;2022-10-10T16:03:54;2.35;;;1.40;;
25615;SDS011;13482;48.234;13.006;2022-10-10T16:06:23;3.80;;;1.30;;
25615;SDS011;13482;48.234;13.006;2022-10-10T16:08:51;2.70;;;1.20;;
25615;SDS011;13482;48.234;13.006;2022-10-10T16:11:39;3.90;;;1.23;;
25615;SDS011;13482;48.234;13.006;2022-10-10T16:14:06;1.70;;;1.40;;
25615;SDS011;13482;48.234;13.006;2022-10-10T16:16:33;2.63;;;1.25;;
25615;SDS011;13482;48.234;13.006;2022-10-10T16:19:00;3.40;;;1.60;;
25615;SDS011;13482;48.234;13.006;2022-10-10T16:21:27;2.28;;;1.35;;
25615;SDS011;13482;48.234;13.006;2022-10-10T16:23:55;2.38;;;1.40;;
25615;SDS011;13482;48.234;13.006;2022-10-10T16:26:25;3.80;;;1.58;;
25615;SDS011;13482;48.234;13.006;2022-10-10T16:28:57;3.00;;;1.50;;
25615;SDS011;13482;48.234;13.006;2022-10-10T16:31:26;2.15;;;1.30;;
25615;SDS011;13482;48.234;13.006;2022-10-10T16:33:55;2.92;;;1.33;;
25615;SDS011;13482;48.234;13.006;2022-10-10T16:36:25;2.45;;;1.30;;
25615;SDS011;13482;48.234;13.006;2022-10-10T16:38:56;2.58;;;1.65;;
25615;SDS011;13482;48.234;13.006;2022-10-10T16:41:24;2.65;;;1.48;;
25615;SDS011;13482;48.234;13.006;2022-10-10T16:44:13;3.80;;;1.63;;
25615;SDS011;13482;48.234;13.006;2022-10-10T16:46:41;3.58;;;1.98;;
25615;SDS011;13482;48.234;13.006;2022-10-10T16:49:10;4.20;;;2.25;;
25615;SDS011;13482;48.234;13.006;2022-10-10T16:51:39;4.55;;;2.22;;
25615;SDS011;13482;48.234;13.006;2022-10-10T16:54:06;3.92;;;2.15;;
25615;SDS011;13482;48.234;13.006;2022-10-10T16:56:34;3.35;;;2.40;;
25615;SDS011;13482;48.234;13.006;2022-10-10T16:59:01;5.15;;;3.03;;
25615;SDS011;13482;48.234;13.006;2022-10-10T17:01:29;6.18;;;4.20;;
25615;SDS011;13482;48.234;13.006;2022-10-10T17:03:57;6.25;;;3.72;;
25615;SDS011;13482;48.234;13.006;2022-10-10T17:06:26;5.18;;;3.00;;
25615;SDS011;13482;48.234;13.006;2022-10-10T17:09:00;4.55;;;2.55;;
25615;SDS011;13482;48.234;13.006;2022-10-10T17:11:28;5.35;;;3.08;;
25615;SDS011;13482;48.234;13.006;2022-10-10T17:13:55;5.40;;;3.20;;
25615;SDS011;13482;48.234;13.006;2022-10-10T17:16:24;4.88;;;2.97;;
25615;SDS011;13482;48.234;13.006;2022-10-10T17:19:13;5.13;;;2.97;;
25615;SDS011;13482;48.234;13.006;2022-10-10T17:21:40;4.00;;;2.70;;
25615;SDS011;13482;48.234;13.006;2022-10-10T17:24:07;4.45;;;2.67;;
25615;SDS011;13482;48.234;13.006;2022-10-10T17:26:35;4.35;;;3.13;;
25615;SDS011;13482;48.234;13.006;2022-10-10T17:29:02;4.28;;;2.50;;
25615;SDS011;13482;48.234;13.006;2022-10-10T17:31:29;4.25;;;2.13;;